sensor_id;sensor_type;location;lat;lon;timestamp;temperature;humidity
324;DHT22;149;51.094;17.002;2023-03-21T00:01:49;11.40;99.90
324;DHT22;149;51.094;17.002;2023-03-21T00:04:17;11.20;99.90
324;DHT22;149;51.094;17.002;2023-03-21T00:06:45;11.20;99.90
324;DHT22;149;51.094;17.002;2023-03-21T00:09:12;11.40;99.90
324;DHT22;149;51.094;17.002;2023-03-21T00:11:39;11.40;99.90
324;DHT22;149;51.094;17.002;2023-03-21T00:14:06;11.40;99.90
324;DHT22;149;51.094;17.002;2023-03-21T00:16:35;11.10;99.90
324;DHT22;149;51.094;17.002;2023-03-21T00:19:05;11.00;99.90
324;DHT22;149;51.094;17.002;2023-03-21T00:21:33;11.00;99.90
324;DHT22;149;51.094;17.002;2023-03-21T00:24:17;11.20;99.90
324;DHT22;149;51.094;17.002;2023-03-21T00:26:44;11.20;99.90
324;DHT22;149;51.094;17.002;2023-03-21T00:29:12;11.30;99.90
324;DHT22;149;51.094;17.002;2023-03-21T00:31:39;11.40;99.90
324;DHT22;149;51.094;17.002;2023-03-21T00:34:06;11.40;99.90
324;DHT22;149;51.094;17.002;2023-03-21T00:36:33;11.30;99.90
324;DHT22;149;51.094;17.002;2023-03-21T00:39:00;11.40;99.90
324;DHT22;149;51.094;17.002;2023-03-21T00:41:27;11.20;99.90
324;DHT22;149;51.094;17.002;2023-03-21T00:44:10;11.30;99.90
324;DHT22;149;51.094;17.002;2023-03-21T00:46:40;11.30;99.90
324;DHT22;149;51.094;17.002;2023-03-21T00:49:26;11.30;99.90
324;DHT22;149;51.094;17.002;2023-03-21T00:51:53;11.40;99.90
324;DHT22;149;51.094;17.002;2023-03-21T00:54:22;11.20;99.90
324;DHT22;149;51.094;17.002;2023-03-21T00:56:49;11.10;99.90
324;DHT22;149;51.094;17.002;2023-03-21T00:59:16;11.10;99.90
324;DHT22;149;51.094;17.002;2023-03-21T01:01:43;11.30;99.90
324;DHT22;149;51.094;17.002;2023-03-21T01:04:13;11.20;99.90
324;DHT22;149;51.094;17.002;2023-03-21T01:06:42;11.50;99.90
324;DHT22;149;51.094;17.002;2023-03-21T01:09:15;11.00;99.90
324;DHT22;149;51.094;17.002;2023-03-21T01:11:43;10.40;99.90
324;DHT22;149;51.094;17.002;2023-03-21T01:14:13;9.90;99.90
324;DHT22;149;51.094;17.002;2023-03-21T01:16:50;9.60;99.90
324;DHT22;149;51.094;17.002;2023-03-21T01:19:19;9.40;99.90
324;DHT22;149;51.094;17.002;2023-03-21T01:21:55;9.30;99.90
324;DHT22;149;51.094;17.002;2023-03-21T01:24:22;9.30;99.90
324;DHT22;149;51.094;17.002;2023-03-21T01:26:49;9.20;99.90
324;DHT22;149;51.094;17.002;2023-03-21T01:29:16;9.10;99.90
324;DHT22;149;51.094;17.002;2023-03-21T01:31:43;9.10;99.90
324;DHT22;149;51.094;17.002;2023-03-21T01:34:11;9.30;99.90
324;DHT22;149;51.094;17.002;2023-03-21T01:36:37;9.40;99.90
324;DHT22;149;51.094;17.002;2023-03-21T01:39:05;9.40;99.90
324;DHT22;149;51.094;17.002;2023-03-21T01:41:37;9.40;99.90
324;DHT22;149;51.094;17.002;2023-03-21T01:44:15;9.40;99.90
324;DHT22;149;51.094;17.002;2023-03-21T01:46:48;9.40;99.90
324;DHT22;149;51.094;17.002;2023-03-21T01:49:44;9.70;99.90
324;DHT22;149;51.094;17.002;2023-03-21T01:52:27;9.60;99.90
324;DHT22;149;51.094;17.002;2023-03-21T01:55:06;9.70;99.90
324;DHT22;149;51.094;17.002;2023-03-21T01:57:41;9.90;99.90
324;DHT22;149;51.094;17.002;2023-03-21T02:00:30;9.90;99.90
324;DHT22;149;51.094;17.002;2023-03-21T02:03:00;10.10;99.90
324;DHT22;149;51.094;17.002;2023-03-21T02:06:01;10.00;99.90
324;DHT22;149;51.094;17.002;2023-03-21T02:08:31;10.10;99.90
324;DHT22;149;51.094;17.002;2023-03-21T02:11:06;10.10;99.90
324;DHT22;149;51.094;17.002;2023-03-21T02:13:35;9.90;99.90
324;DHT22;149;51.094;17.002;2023-03-21T02:16:20;9.80;99.90
324;DHT22;149;51.094;17.002;2023-03-21T02:22:07;9.60;99.90
324;DHT22;149;51.094;17.002;2023-03-21T02:27:35;9.70;99.90
324;DHT22;149;51.094;17.002;2023-03-21T02:30:32;9.80;99.90
324;DHT22;149;51.094;17.002;2023-03-21T02:44:41;9.40;99.90
324;DHT22;149;51.094;17.002;2023-03-21T02:47:33;9.40;99.90
324;DHT22;149;51.094;17.002;2023-03-21T02:52:54;9.20;99.90
324;DHT22;149;51.094;17.002;2023-03-21T02:55:27;9.30;99.90
324;DHT22;149;51.094;17.002;2023-03-21T02:57:56;9.20;99.90
324;DHT22;149;51.094;17.002;2023-03-21T03:00:37;9.30;99.90
324;DHT22;149;51.094;17.002;2023-03-21T03:03:05;9.30;99.90
324;DHT22;149;51.094;17.002;2023-03-21T03:05:46;9.50;99.90
324;DHT22;149;51.094;17.002;2023-03-21T03:08:34;9.60;99.90
324;DHT22;149;51.094;17.002;2023-03-21T03:11:27;9.40;99.90
324;DHT22;149;51.094;17.002;2023-03-21T03:14:20;9.60;99.90
324;DHT22;149;51.094;17.002;2023-03-21T03:20:19;9.60;99.90
324;DHT22;149;51.094;17.002;2023-03-21T03:23:06;9.70;99.90
324;DHT22;149;51.094;17.002;2023-03-21T03:25:40;9.70;99.90
324;DHT22;149;51.094;17.002;2023-03-21T03:28:12;9.70;99.90
324;DHT22;149;51.094;17.002;2023-03-21T03:30:41;9.60;99.90
324;DHT22;149;51.094;17.002;2023-03-21T03:33:29;9.70;99.90
324;DHT22;149;51.094;17.002;2023-03-21T03:35:59;9.40;99.90
324;DHT22;149;51.094;17.002;2023-03-21T03:38:33;9.40;99.90
324;DHT22;149;51.094;17.002;2023-03-21T03:41:09;9.30;99.90
324;DHT22;149;51.094;17.002;2023-03-21T03:43:48;9.60;99.90
324;DHT22;149;51.094;17.002;2023-03-21T03:46:27;9.30;99.90
324;DHT22;149;51.094;17.002;2023-03-21T03:49:14;9.20;99.90
324;DHT22;149;51.094;17.002;2023-03-21T03:52:06;9.40;99.90
324;DHT22;149;51.094;17.002;2023-03-21T03:54:39;9.10;99.90
324;DHT22;149;51.094;17.002;2023-03-21T03:57:08;9.30;99.90
324;DHT22;149;51.094;17.002;2023-03-21T03:59:39;9.20;99.90
324;DHT22;149;51.094;17.002;2023-03-21T04:02:07;9.20;99.90
324;DHT22;149;51.094;17.002;2023-03-21T04:04:34;9.10;99.90
324;DHT22;149;51.094;17.002;2023-03-21T04:07:03;9.20;99.90
324;DHT22;149;51.094;17.002;2023-03-21T04:09:30;9.20;99.90
324;DHT22;149;51.094;17.002;2023-03-21T04:12:10;9.20;99.90
324;DHT22;149;51.094;17.002;2023-03-21T04:14:38;9.10;99.90
324;DHT22;149;51.094;17.002;2023-03-21T04:17:13;9.00;99.90
324;DHT22;149;51.094;17.002;2023-03-21T04:19:40;9.00;99.90
324;DHT22;149;51.094;17.002;2023-03-21T04:22:07;9.00;99.90
324;DHT22;149;51.094;17.002;2023-03-21T04:24:34;9.10;99.90
324;DHT22;149;51.094;17.002;2023-03-21T04:27:03;9.10;99.90
324;DHT22;149;51.094;17.002;2023-03-21T04:29:31;9.20;99.90
324;DHT22;149;51.094;17.002;2023-03-21T04:31:58;9.30;99.90
324;DHT22;149;51.094;17.002;2023-03-21T04:34:25;9.10;99.90
324;DHT22;149;51.094;17.002;2023-03-21T04:36:54;9.10;99.90
324;DHT22;149;51.094;17.002;2023-03-21T04:39:21;9.30;99.90
324;DHT22;149;51.094;17.002;2023-03-21T04:41:50;9.30;99.90
324;DHT22;149;51.094;17.002;2023-03-21T04:44:17;9.30;99.90
324;DHT22;149;51.094;17.002;2023-03-21T04:46:44;9.30;99.90
324;DHT22;149;51.094;17.002;2023-03-21T04:49:11;9.20;99.90
324;DHT22;149;51.094;17.002;2023-03-21T04:51:40;9.20;99.90
324;DHT22;149;51.094;17.002;2023-03-21T04:54:07;9.40;99.90
324;DHT22;149;51.094;17.002;2023-03-21T04:56:37;9.40;99.90
324;DHT22;149;51.094;17.002;2023-03-21T04:59:08;9.40;99.90
324;DHT22;149;51.094;17.002;2023-03-21T05:01:36;9.40;99.90
324;DHT22;149;51.094;17.002;2023-03-21T05:04:03;9.30;99.90
324;DHT22;149;51.094;17.002;2023-03-21T05:06:31;9.20;99.90
324;DHT22;149;51.094;17.002;2023-03-21T05:08:59;9.20;99.90
324;DHT22;149;51.094;17.002;2023-03-21T05:11:27;9.10;99.90
324;DHT22;149;51.094;17.002;2023-03-21T05:13:57;9.20;99.90
324;DHT22;149;51.094;17.002;2023-03-21T05:16:25;9.20;99.90
324;DHT22;149;51.094;17.002;2023-03-21T05:19:01;9.20;99.90
324;DHT22;149;51.094;17.002;2023-03-21T05:21:31;9.10;99.90
324;DHT22;149;51.094;17.002;2023-03-21T05:24:08;9.30;99.90
324;DHT22;149;51.094;17.002;2023-03-21T05:26:38;9.10;99.90
324;DHT22;149;51.094;17.002;2023-03-21T05:29:06;9.40;99.90
324;DHT22;149;51.094;17.002;2023-03-21T05:31:33;9.40;99.90
324;DHT22;149;51.094;17.002;2023-03-21T05:34:00;9.60;99.90
324;DHT22;149;51.094;17.002;2023-03-21T05:36:27;9.60;99.90
324;DHT22;149;51.094;17.002;2023-03-21T05:38:55;9.60;99.90
324;DHT22;149;51.094;17.002;2023-03-21T05:41:22;9.80;99.90
324;DHT22;149;51.094;17.002;2023-03-21T05:43:49;9.80;99.90
324;DHT22;149;51.094;17.002;2023-03-21T05:46:16;10.00;99.90
324;DHT22;149;51.094;17.002;2023-03-21T05:48:44;10.00;99.90
324;DHT22;149;51.094;17.002;2023-03-21T05:51:11;10.00;99.90
324;DHT22;149;51.094;17.002;2023-03-21T05:53:38;10.20;99.90
324;DHT22;149;51.094;17.002;2023-03-21T05:56:05;10.00;99.90
324;DHT22;149;51.094;17.002;2023-03-21T05:58:34;10.00;99.90
324;DHT22;149;51.094;17.002;2023-03-21T06:01:00;10.00;99.90
324;DHT22;149;51.094;17.002;2023-03-21T06:03:27;9.80;99.90
324;DHT22;149;51.094;17.002;2023-03-21T06:05:55;10.00;99.90
324;DHT22;149;51.094;17.002;2023-03-21T06:08:21;10.00;99.90
324;DHT22;149;51.094;17.002;2023-03-21T06:10:49;10.00;99.90
324;DHT22;149;51.094;17.002;2023-03-21T06:13:15;9.80;99.90
324;DHT22;149;51.094;17.002;2023-03-21T06:15:43;9.70;99.90
324;DHT22;149;51.094;17.002;2023-03-21T06:18:09;9.70;99.90
324;DHT22;149;51.094;17.002;2023-03-21T06:20:37;9.60;99.90
324;DHT22;149;51.094;17.002;2023-03-21T06:23:04;9.70;99.90
324;DHT22;149;51.094;17.002;2023-03-21T06:25:32;9.80;99.90
324;DHT22;149;51.094;17.002;2023-03-21T06:27:59;9.80;99.90
324;DHT22;149;51.094;17.002;2023-03-21T06:30:26;10.00;99.90
324;DHT22;149;51.094;17.002;2023-03-21T06:32:53;10.10;99.90
324;DHT22;149;51.094;17.002;2023-03-21T06:35:21;10.20;99.90
324;DHT22;149;51.094;17.002;2023-03-21T06:37:48;10.30;99.90
324;DHT22;149;51.094;17.002;2023-03-21T06:40:15;10.40;99.90
324;DHT22;149;51.094;17.002;2023-03-21T06:42:42;10.50;99.90
324;DHT22;149;51.094;17.002;2023-03-21T06:45:10;10.50;99.90
324;DHT22;149;51.094;17.002;2023-03-21T06:47:37;10.60;99.90
324;DHT22;149;51.094;17.002;2023-03-21T06:50:04;10.40;99.90
324;DHT22;149;51.094;17.002;2023-03-21T06:52:33;10.40;99.90
324;DHT22;149;51.094;17.002;2023-03-21T06:54:59;10.40;99.90
324;DHT22;149;51.094;17.002;2023-03-21T06:57:26;10.30;99.90
324;DHT22;149;51.094;17.002;2023-03-21T06:59:53;10.30;99.90
324;DHT22;149;51.094;17.002;2023-03-21T07:02:20;10.20;99.90
324;DHT22;149;51.094;17.002;2023-03-21T07:04:47;10.20;99.90
324;DHT22;149;51.094;17.002;2023-03-21T07:07:14;10.20;99.90
324;DHT22;149;51.094;17.002;2023-03-21T07:09:41;10.10;99.90
324;DHT22;149;51.094;17.002;2023-03-21T07:12:09;10.10;99.90
324;DHT22;149;51.094;17.002;2023-03-21T07:14:36;10.10;99.90
324;DHT22;149;51.094;17.002;2023-03-21T07:17:03;10.40;99.90
324;DHT22;149;51.094;17.002;2023-03-21T07:19:30;10.50;99.90
324;DHT22;149;51.094;17.002;2023-03-21T07:21:58;10.40;99.90
324;DHT22;149;51.094;17.002;2023-03-21T07:24:25;10.20;99.90
324;DHT22;149;51.094;17.002;2023-03-21T07:26:53;10.10;99.90
324;DHT22;149;51.094;17.002;2023-03-21T07:29:20;10.20;99.90
324;DHT22;149;51.094;17.002;2023-03-21T07:31:49;10.20;99.90
324;DHT22;149;51.094;17.002;2023-03-21T07:34:16;10.30;99.90
324;DHT22;149;51.094;17.002;2023-03-21T07:36:44;10.40;99.90
324;DHT22;149;51.094;17.002;2023-03-21T07:39:11;10.40;99.90
324;DHT22;149;51.094;17.002;2023-03-21T07:41:38;10.40;99.90
324;DHT22;149;51.094;17.002;2023-03-21T07:44:05;10.40;99.90
324;DHT22;149;51.094;17.002;2023-03-21T07:46:37;10.60;99.90
324;DHT22;149;51.094;17.002;2023-03-21T07:49:04;10.60;99.90
324;DHT22;149;51.094;17.002;2023-03-21T07:51:31;10.60;99.90
324;DHT22;149;51.094;17.002;2023-03-21T07:54:01;10.70;99.90
324;DHT22;149;51.094;17.002;2023-03-21T07:56:28;10.80;99.90
324;DHT22;149;51.094;17.002;2023-03-21T07:58:55;10.70;99.90
324;DHT22;149;51.094;17.002;2023-03-21T08:01:22;10.60;99.90
324;DHT22;149;51.094;17.002;2023-03-21T08:03:49;10.70;99.90
324;DHT22;149;51.094;17.002;2023-03-21T08:06:17;10.60;99.90
324;DHT22;149;51.094;17.002;2023-03-21T08:08:44;10.70;99.90
324;DHT22;149;51.094;17.002;2023-03-21T08:11:11;10.50;99.90
324;DHT22;149;51.094;17.002;2023-03-21T08:13:38;10.40;99.90
324;DHT22;149;51.094;17.002;2023-03-21T08:16:06;10.60;99.90
324;DHT22;149;51.094;17.002;2023-03-21T08:18:33;10.60;99.90
324;DHT22;149;51.094;17.002;2023-03-21T08:21:01;10.50;99.90
324;DHT22;149;51.094;17.002;2023-03-21T08:23:28;10.30;99.90
324;DHT22;149;51.094;17.002;2023-03-21T08:25:56;10.20;99.90
324;DHT22;149;51.094;17.002;2023-03-21T08:28:23;10.50;99.90
324;DHT22;149;51.094;17.002;2023-03-21T08:30:50;10.50;99.90
324;DHT22;149;51.094;17.002;2023-03-21T08:33:17;10.50;99.90
324;DHT22;149;51.094;17.002;2023-03-21T08:35:45;10.30;99.90
324;DHT22;149;51.094;17.002;2023-03-21T08:38:13;10.40;99.90
324;DHT22;149;51.094;17.002;2023-03-21T08:40:40;10.60;99.90
324;DHT22;149;51.094;17.002;2023-03-21T08:43:07;10.90;99.90
324;DHT22;149;51.094;17.002;2023-03-21T08:45:34;11.30;99.90
324;DHT22;149;51.094;17.002;2023-03-21T08:48:02;11.50;99.90
324;DHT22;149;51.094;17.002;2023-03-21T08:50:29;11.60;99.90
324;DHT22;149;51.094;17.002;2023-03-21T08:52:57;11.30;99.90
324;DHT22;149;51.094;17.002;2023-03-21T08:55:24;11.10;99.90
324;DHT22;149;51.094;17.002;2023-03-21T08:57:51;11.00;99.90
324;DHT22;149;51.094;17.002;2023-03-21T09:00:19;11.20;99.90
324;DHT22;149;51.094;17.002;2023-03-21T09:02:50;11.20;99.90
324;DHT22;149;51.094;17.002;2023-03-21T09:05:18;11.10;99.90
324;DHT22;149;51.094;17.002;2023-03-21T09:07:46;11.40;99.90
324;DHT22;149;51.094;17.002;2023-03-21T09:10:16;11.60;99.90
324;DHT22;149;51.094;17.002;2023-03-21T09:12:52;11.70;99.90
324;DHT22;149;51.094;17.002;2023-03-21T09:15:22;11.70;99.90
324;DHT22;149;51.094;17.002;2023-03-21T09:17:51;11.60;99.90
324;DHT22;149;51.094;17.002;2023-03-21T09:20:25;11.80;99.90
324;DHT22;149;51.094;17.002;2023-03-21T09:22:57;11.90;99.90
324;DHT22;149;51.094;17.002;2023-03-21T09:25:24;11.90;99.90
324;DHT22;149;51.094;17.002;2023-03-21T09:27:55;11.80;99.90
324;DHT22;149;51.094;17.002;2023-03-21T09:30:22;11.80;99.90
324;DHT22;149;51.094;17.002;2023-03-21T09:32:51;12.00;99.90
324;DHT22;149;51.094;17.002;2023-03-21T09:35:20;12.10;99.90
324;DHT22;149;51.094;17.002;2023-03-21T09:37:48;12.10;99.90
324;DHT22;149;51.094;17.002;2023-03-21T09:45:46;13.50;99.90
324;DHT22;149;51.094;17.002;2023-03-21T09:48:31;13.50;99.90
324;DHT22;149;51.094;17.002;2023-03-21T09:51:03;14.20;99.90
324;DHT22;149;51.094;17.002;2023-03-21T09:53:36;14.40;99.90
324;DHT22;149;51.094;17.002;2023-03-21T09:56:05;14.20;99.90
324;DHT22;149;51.094;17.002;2023-03-21T09:58:41;14.30;99.90
324;DHT22;149;51.094;17.002;2023-03-21T10:01:13;14.40;99.90
324;DHT22;149;51.094;17.002;2023-03-21T10:03:48;14.10;99.90
324;DHT22;149;51.094;17.002;2023-03-21T10:06:16;14.00;99.90
324;DHT22;149;51.094;17.002;2023-03-21T10:08:45;14.30;99.90
324;DHT22;149;51.094;17.002;2023-03-21T10:13:50;14.70;99.90
324;DHT22;149;51.094;17.002;2023-03-21T10:16:31;14.70;99.90
324;DHT22;149;51.094;17.002;2023-03-21T10:19:03;14.50;99.90
324;DHT22;149;51.094;17.002;2023-03-21T10:21:31;14.50;99.90
324;DHT22;149;51.094;17.002;2023-03-21T10:24:26;14.60;99.90
324;DHT22;149;51.094;17.002;2023-03-21T10:26:54;15.60;99.90
324;DHT22;149;51.094;17.002;2023-03-21T10:29:26;15.40;99.90
324;DHT22;149;51.094;17.002;2023-03-21T10:31:55;15.80;99.90
324;DHT22;149;51.094;17.002;2023-03-21T10:34:36;15.30;99.90
324;DHT22;149;51.094;17.002;2023-03-21T10:37:05;15.30;99.90
324;DHT22;149;51.094;17.002;2023-03-21T10:39:38;15.40;99.90
324;DHT22;149;51.094;17.002;2023-03-21T10:42:19;15.30;99.90
324;DHT22;149;51.094;17.002;2023-03-21T10:44:49;14.90;99.90
324;DHT22;149;51.094;17.002;2023-03-21T10:49:51;15.30;99.90
324;DHT22;149;51.094;17.002;2023-03-21T10:52:45;15.50;99.90
324;DHT22;149;51.094;17.002;2023-03-21T10:55:28;15.80;99.90
324;DHT22;149;51.094;17.002;2023-03-21T10:57:59;15.70;99.90
324;DHT22;149;51.094;17.002;2023-03-21T11:00:34;15.20;99.90
324;DHT22;149;51.094;17.002;2023-03-21T11:03:03;15.40;99.90
324;DHT22;149;51.094;17.002;2023-03-21T11:05:37;15.40;99.90
324;DHT22;149;51.094;17.002;2023-03-21T11:08:13;15.40;99.90
324;DHT22;149;51.094;17.002;2023-03-21T11:10:52;15.30;99.90
324;DHT22;149;51.094;17.002;2023-03-21T11:13:25;15.50;99.90
324;DHT22;149;51.094;17.002;2023-03-21T11:15:56;15.50;99.90
324;DHT22;149;51.094;17.002;2023-03-21T11:18:26;15.60;99.90
324;DHT22;149;51.094;17.002;2023-03-21T11:21:02;15.40;99.90
324;DHT22;149;51.094;17.002;2023-03-21T11:23:31;15.20;99.90
324;DHT22;149;51.094;17.002;2023-03-21T11:25:59;15.00;99.90
324;DHT22;149;51.094;17.002;2023-03-21T11:28:38;15.10;99.90
324;DHT22;149;51.094;17.002;2023-03-21T11:31:07;15.00;99.90
324;DHT22;149;51.094;17.002;2023-03-21T11:33:39;14.90;99.90
324;DHT22;149;51.094;17.002;2023-03-21T11:38:55;14.90;99.90
324;DHT22;149;51.094;17.002;2023-03-21T11:41:27;14.90;99.90
324;DHT22;149;51.094;17.002;2023-03-21T11:43:55;15.00;99.90
324;DHT22;149;51.094;17.002;2023-03-21T11:46:28;15.30;99.90
324;DHT22;149;51.094;17.002;2023-03-21T11:48:58;15.40;99.90
324;DHT22;149;51.094;17.002;2023-03-21T11:51:44;15.20;99.90
324;DHT22;149;51.094;17.002;2023-03-21T11:54:36;14.90;99.90
324;DHT22;149;51.094;17.002;2023-03-21T12:00:21;14.70;99.90
324;DHT22;149;51.094;17.002;2023-03-21T12:03:27;14.50;99.90
324;DHT22;149;51.094;17.002;2023-03-21T12:06:36;14.50;99.90
324;DHT22;149;51.094;17.002;2023-03-21T12:09:36;14.60;99.90
324;DHT22;149;51.094;17.002;2023-03-21T12:23:06;15.50;99.90
324;DHT22;149;51.094;17.002;2023-03-21T12:25:38;15.80;99.90
324;DHT22;149;51.094;17.002;2023-03-21T12:28:27;16.00;99.90
324;DHT22;149;51.094;17.002;2023-03-21T12:31:13;16.20;99.90
324;DHT22;149;51.094;17.002;2023-03-21T12:33:56;16.50;99.90
324;DHT22;149;51.094;17.002;2023-03-21T12:39:28;16.10;99.90
324;DHT22;149;51.094;17.002;2023-03-21T12:44:38;16.10;99.90
324;DHT22;149;51.094;17.002;2023-03-21T12:47:16;16.20;99.90
324;DHT22;149;51.094;17.002;2023-03-21T12:49:53;16.10;99.90
324;DHT22;149;51.094;17.002;2023-03-21T12:52:26;15.80;99.90
324;DHT22;149;51.094;17.002;2023-03-21T12:55:02;15.70;99.90
324;DHT22;149;51.094;17.002;2023-03-21T12:57:44;15.20;99.90
324;DHT22;149;51.094;17.002;2023-03-21T13:00:46;15.20;99.90
324;DHT22;149;51.094;17.002;2023-03-21T13:03:18;15.30;99.90
324;DHT22;149;51.094;17.002;2023-03-21T13:06:04;15.50;99.90
324;DHT22;149;51.094;17.002;2023-03-21T13:08:59;15.40;99.90
324;DHT22;149;51.094;17.002;2023-03-21T13:11:31;15.40;99.90
324;DHT22;149;51.094;17.002;2023-03-21T13:14:06;15.10;99.90
324;DHT22;149;51.094;17.002;2023-03-21T13:19:17;14.90;99.90
324;DHT22;149;51.094;17.002;2023-03-21T13:24:32;15.00;99.90
324;DHT22;149;51.094;17.002;2023-03-21T13:35:19;14.90;99.90
324;DHT22;149;51.094;17.002;2023-03-21T13:38:04;15.00;99.90
324;DHT22;149;51.094;17.002;2023-03-21T13:40:50;15.30;99.90
324;DHT22;149;51.094;17.002;2023-03-21T13:43:49;15.30;99.90
324;DHT22;149;51.094;17.002;2023-03-21T13:54:20;15.10;99.90
324;DHT22;149;51.094;17.002;2023-03-21T13:56:54;15.00;99.90
324;DHT22;149;51.094;17.002;2023-03-21T14:04:44;15.10;99.90
324;DHT22;149;51.094;17.002;2023-03-21T14:07:33;14.90;99.90
324;DHT22;149;51.094;17.002;2023-03-21T14:10:04;15.00;99.90
324;DHT22;149;51.094;17.002;2023-03-21T14:12:39;15.10;99.90
324;DHT22;149;51.094;17.002;2023-03-21T14:17:51;15.60;99.90
324;DHT22;149;51.094;17.002;2023-03-21T14:20:29;15.80;99.90
324;DHT22;149;51.094;17.002;2023-03-21T14:22:58;15.90;99.90
324;DHT22;149;51.094;17.002;2023-03-21T14:25:35;15.90;99.90
324;DHT22;149;51.094;17.002;2023-03-21T14:28:18;15.80;99.90
324;DHT22;149;51.094;17.002;2023-03-21T14:30:51;15.60;99.90
324;DHT22;149;51.094;17.002;2023-03-21T14:33:36;15.40;99.90
324;DHT22;149;51.094;17.002;2023-03-21T14:36:15;15.00;99.90
324;DHT22;149;51.094;17.002;2023-03-21T14:38:57;14.90;99.90
324;DHT22;149;51.094;17.002;2023-03-21T14:41:29;14.70;99.90
324;DHT22;149;51.094;17.002;2023-03-21T14:46:38;15.00;99.90
324;DHT22;149;51.094;17.002;2023-03-21T14:49:20;14.70;99.90
324;DHT22;149;51.094;17.002;2023-03-21T14:51:49;14.40;99.90
324;DHT22;149;51.094;17.002;2023-03-21T14:54:17;14.30;99.90
324;DHT22;149;51.094;17.002;2023-03-21T14:56:47;14.30;99.90
324;DHT22;149;51.094;17.002;2023-03-21T14:59:20;14.40;99.90
324;DHT22;149;51.094;17.002;2023-03-21T15:01:49;14.50;99.90
324;DHT22;149;51.094;17.002;2023-03-21T15:04:17;14.50;99.90
324;DHT22;149;51.094;17.002;2023-03-21T15:07:02;14.60;99.90
324;DHT22;149;51.094;17.002;2023-03-21T15:09:32;14.70;99.90
324;DHT22;149;51.094;17.002;2023-03-21T15:12:01;14.70;99.90
324;DHT22;149;51.094;17.002;2023-03-21T15:14:34;14.70;99.90
324;DHT22;149;51.094;17.002;2023-03-21T15:17:02;14.60;99.90
324;DHT22;149;51.094;17.002;2023-03-21T15:19:36;14.60;99.90
324;DHT22;149;51.094;17.002;2023-03-21T15:22:18;14.50;99.90
324;DHT22;149;51.094;17.002;2023-03-21T15:24:51;14.60;99.90
324;DHT22;149;51.094;17.002;2023-03-21T15:27:23;14.70;99.90
324;DHT22;149;51.094;17.002;2023-03-21T15:29:51;14.70;99.90
324;DHT22;149;51.094;17.002;2023-03-21T15:32:25;14.70;99.90
324;DHT22;149;51.094;17.002;2023-03-21T15:35:04;14.50;99.90
324;DHT22;149;51.094;17.002;2023-03-21T15:37:36;14.50;99.90
324;DHT22;149;51.094;17.002;2023-03-21T15:40:19;14.30;99.90
324;DHT22;149;51.094;17.002;2023-03-21T15:42:47;14.20;99.90
324;DHT22;149;51.094;17.002;2023-03-21T15:48:02;14.20;99.90
324;DHT22;149;51.094;17.002;2023-03-21T15:50:37;14.10;99.90
324;DHT22;149;51.094;17.002;2023-03-21T15:53:14;14.10;99.90
324;DHT22;149;51.094;17.002;2023-03-21T15:58:20;14.00;99.90
324;DHT22;149;51.094;17.002;2023-03-21T16:00:51;13.90;99.90
324;DHT22;149;51.094;17.002;2023-03-21T16:03:22;13.90;99.90
324;DHT22;149;51.094;17.002;2023-03-21T16:08:45;14.00;99.90
324;DHT22;149;51.094;17.002;2023-03-21T16:13:50;14.10;99.90
324;DHT22;149;51.094;17.002;2023-03-21T16:16:25;14.10;99.90
324;DHT22;149;51.094;17.002;2023-03-21T16:18:54;13.90;99.90
324;DHT22;149;51.094;17.002;2023-03-21T16:21:26;14.00;99.90
324;DHT22;149;51.094;17.002;2023-03-21T16:23:55;14.10;99.90
324;DHT22;149;51.094;17.002;2023-03-21T16:26:25;14.10;99.90
324;DHT22;149;51.094;17.002;2023-03-21T16:28:53;14.00;99.90
324;DHT22;149;51.094;17.002;2023-03-21T16:31:22;13.90;99.90
324;DHT22;149;51.094;17.002;2023-03-21T16:33:50;13.60;99.90
324;DHT22;149;51.094;17.002;2023-03-21T16:36:26;13.70;99.90
324;DHT22;149;51.094;17.002;2023-03-21T16:38:55;13.40;99.90
324;DHT22;149;51.094;17.002;2023-03-21T16:41:24;13.50;99.90
324;DHT22;149;51.094;17.002;2023-03-21T16:43:51;13.50;99.90
324;DHT22;149;51.094;17.002;2023-03-21T16:46:24;13.40;99.90
324;DHT22;149;51.094;17.002;2023-03-21T16:48:54;13.40;99.90
324;DHT22;149;51.094;17.002;2023-03-21T16:51:24;13.30;99.90
324;DHT22;149;51.094;17.002;2023-03-21T16:53:55;13.20;99.90
324;DHT22;149;51.094;17.002;2023-03-21T16:56:45;13.20;99.90
324;DHT22;149;51.094;17.002;2023-03-21T16:59:13;13.40;99.90
324;DHT22;149;51.094;17.002;2023-03-21T17:01:41;13.40;99.90
324;DHT22;149;51.094;17.002;2023-03-21T17:04:12;13.20;99.90
324;DHT22;149;51.094;17.002;2023-03-21T17:06:51;13.10;99.90
324;DHT22;149;51.094;17.002;2023-03-21T17:09:23;13.30;99.90
324;DHT22;149;51.094;17.002;2023-03-21T17:11:51;13.30;99.90
324;DHT22;149;51.094;17.002;2023-03-21T17:14:19;13.30;99.90
324;DHT22;149;51.094;17.002;2023-03-21T17:16:47;12.90;99.90
324;DHT22;149;51.094;17.002;2023-03-21T17:19:19;12.70;99.90
324;DHT22;149;51.094;17.002;2023-03-21T17:21:49;12.50;99.90
324;DHT22;149;51.094;17.002;2023-03-21T17:24:16;12.60;99.90
324;DHT22;149;51.094;17.002;2023-03-21T17:26:43;12.60;99.90
324;DHT22;149;51.094;17.002;2023-03-21T17:29:12;12.40;99.90
324;DHT22;149;51.094;17.002;2023-03-21T17:31:39;12.20;99.90
324;DHT22;149;51.094;17.002;2023-03-21T17:34:06;11.90;99.90
324;DHT22;149;51.094;17.002;2023-03-21T17:36:39;12.00;99.90
324;DHT22;149;51.094;17.002;2023-03-21T17:39:09;12.10;99.90
324;DHT22;149;51.094;17.002;2023-03-21T17:41:38;12.10;99.90
324;DHT22;149;51.094;17.002;2023-03-21T17:44:05;12.30;99.90
324;DHT22;149;51.094;17.002;2023-03-21T17:46:34;12.40;99.90
324;DHT22;149;51.094;17.002;2023-03-21T17:49:04;12.50;99.90
324;DHT22;149;51.094;17.002;2023-03-21T17:51:31;12.20;99.90
324;DHT22;149;51.094;17.002;2023-03-21T17:53:59;12.00;99.90
324;DHT22;149;51.094;17.002;2023-03-21T17:56:28;12.10;99.90
324;DHT22;149;51.094;17.002;2023-03-21T17:59:02;11.90;99.90
324;DHT22;149;51.094;17.002;2023-03-21T18:01:30;11.90;99.90
324;DHT22;149;51.094;17.002;2023-03-21T18:04:00;11.90;99.90
324;DHT22;149;51.094;17.002;2023-03-21T18:06:31;12.00;99.90
324;DHT22;149;51.094;17.002;2023-03-21T18:09:00;11.80;99.90
324;DHT22;149;51.094;17.002;2023-03-21T18:11:29;11.80;99.90
324;DHT22;149;51.094;17.002;2023-03-21T18:13:57;11.70;99.90
324;DHT22;149;51.094;17.002;2023-03-21T18:16:40;11.80;99.90
324;DHT22;149;51.094;17.002;2023-03-21T18:19:09;11.60;99.90
324;DHT22;149;51.094;17.002;2023-03-21T18:21:36;11.50;99.90
324;DHT22;149;51.094;17.002;2023-03-21T18:24:06;11.40;99.90
324;DHT22;149;51.094;17.002;2023-03-21T18:26:33;11.30;99.90
324;DHT22;149;51.094;17.002;2023-03-21T18:29:01;11.40;99.90
324;DHT22;149;51.094;17.002;2023-03-21T18:31:48;11.40;99.90
324;DHT22;149;51.094;17.002;2023-03-21T18:34:31;11.40;99.90